sensor_id;sensor_type;location;lat;lon;timestamp;pressure;altitude;pressure_sealevel;temperature;humidity
29433;BME280;16405;53.964;13.448;2024-03-23T00:55:56;100312.28;;;6.63;100.00
29433;BME280;16405;53.964;13.448;2024-03-23T00:58:22;100311.56;;;6.59;100.00
29433;BME280;16405;53.964;13.448;2024-03-23T01:00:53;100316.72;;;6.61;100.00
29433;BME280;16405;53.964;13.448;2024-03-23T01:03:18;100312.41;;;6.60;100.00
29433;BME280;16405;53.964;13.448;2024-03-23T01:05:44;100312.38;;;6.61;100.00
29433;BME280;16405;53.964;13.448;2024-03-23T01:08:10;100302.78;;;6.60;100.00
29433;BME280;16405;53.964;13.448;2024-03-23T01:10:36;100312.38;;;6.61;100.00
29433;BME280;16405;53.964;13.448;2024-03-23T01:13:01;100306.50;;;6.54;100.00
29433;BME280;16405;53.964;13.448;2024-03-23T01:15:27;100303.09;;;6.52;100.00
29433;BME280;16405;53.964;13.448;2024-03-23T01:17:58;100312.59;;;6.55;99.74
29433;BME280;16405;53.964;13.448;2024-03-23T01:20:24;100307.34;;;6.55;99.71
29433;BME280;16405;53.964;13.448;2024-03-23T01:22:50;100310.03;;;6.53;99.70
29433;BME280;16405;53.964;13.448;2024-03-23T01:25:16;100311.75;;;6.54;99.64
29433;BME280;16405;53.964;13.448;2024-03-23T01:27:42;100311.75;;;6.54;98.98
29433;BME280;16405;53.964;13.448;2024-03-23T01:30:16;100294.28;;;6.55;99.16
29433;BME280;16405;53.964;13.448;2024-03-23T01:32:42;100294.31;;;6.53;99.13
29433;BME280;16405;53.964;13.448;2024-03-23T01:35:09;100295.16;;;6.54;98.56
29433;BME280;16405;53.964;13.448;2024-03-23T01:37:34;100297.00;;;6.52;98.84
29433;BME280;16405;53.964;13.448;2024-03-23T01:40:06;100284.00;;;6.50;99.00
29433;BME280;16405;53.964;13.448;2024-03-23T01:42:32;100288.44;;;6.48;98.45
29433;BME280;16405;53.964;13.448;2024-03-23T01:44:57;100278.06;;;6.45;98.66
29433;BME280;16405;53.964;13.448;2024-03-23T01:47:23;100278.06;;;6.45;98.91
29433;BME280;16405;53.964;13.448;2024-03-23T01:49:49;100269.38;;;6.45;98.59
29433;BME280;16405;53.964;13.448;2024-03-23T01:54:51;100254.75;;;6.39;99.07
29433;BME280;16405;53.964;13.448;2024-03-23T01:57:17;100265.19;;;6.39;98.43
29433;BME280;16405;53.964;13.448;2024-03-23T01:59:43;100265.19;;;6.39;99.10
29433;BME280;16405;53.964;13.448;2024-03-23T02:02:16;100250.56;;;6.35;99.23
29433;BME280;16405;53.964;13.448;2024-03-23T02:04:44;100255.84;;;6.33;99.02
29433;BME280;16405;53.964;13.448;2024-03-23T02:07:21;100246.25;;;6.32;99.13
29433;BME280;16405;53.964;13.448;2024-03-23T02:09:47;100245.47;;;6.30;99.38
29433;BME280;16405;53.964;13.448;2024-03-23T02:12:13;100240.38;;;6.27;99.40
29433;BME280;16405;53.964;13.448;2024-03-23T02:14:39;100240.38;;;6.27;99.40
29433;BME280;16405;53.964;13.448;2024-03-23T02:17:12;100230.03;;;6.24;99.55
29433;BME280;16405;53.964;13.448;2024-03-23T02:19:38;100232.69;;;6.23;99.48
29433;BME280;16405;53.964;13.448;2024-03-23T02:22:04;100237.91;;;6.23;99.24
29433;BME280;16405;53.964;13.448;2024-03-23T02:24:30;100231.06;;;6.20;99.50
29433;BME280;16405;53.964;13.448;2024-03-23T02:27:01;100229.28;;;6.21;99.71
29433;BME280;16405;53.964;13.448;2024-03-23T02:29:27;100228.47;;;6.19;99.81
29433;BME280;16405;53.964;13.448;2024-03-23T02:31:55;100222.34;;;6.20;99.99
29433;BME280;16405;53.964;13.448;2024-03-23T02:34:21;100217.97;;;6.20;99.97
29433;BME280;16405;53.964;13.448;2024-03-23T02:36:47;100224.91;;;6.21;99.94
29433;BME280;16405;53.964;13.448;2024-03-23T02:39:22;100221.25;;;6.25;100.00
29433;BME280;16405;53.964;13.448;2024-03-23T02:41:47;100216.03;;;6.25;100.00
29433;BME280;16405;53.964;13.448;2024-03-23T02:44:22;100215.25;;;6.23;100.00
29433;BME280;16405;53.964;13.448;2024-03-23T02:46:48;100210.13;;;6.20;100.00
29433;BME280;16405;53.964;13.448;2024-03-23T02:49:14;100212.00;;;6.16;100.00
29433;BME280;16405;53.964;13.448;2024-03-23T02:51:40;100201.66;;;6.13;100.00
29433;BME280;16405;53.964;13.448;2024-03-23T02:54:06;100200.78;;;6.13;100.00
29433;BME280;16405;53.964;13.448;2024-03-23T02:56:41;100200.78;;;6.13;100.00
29433;BME280;16405;53.964;13.448;2024-03-23T02:59:07;100200.97;;;6.08;100.00
29433;BME280;16405;53.964;13.448;2024-03-23T03:01:33;100196.59;;;6.09;100.00
29433;BME280;16405;53.964;13.448;2024-03-23T03:04:00;100196.59;;;6.09;100.00
29433;BME280;16405;53.964;13.448;2024-03-23T03:06:34;100203.53;;;6.10;100.00
29433;BME280;16405;53.964;13.448;2024-03-23T03:09:00;100195.63;;;6.11;100.00
29433;BME280;16405;53.964;13.448;2024-03-23T03:11:26;100189.63;;;6.09;100.00
29433;BME280;16405;53.964;13.448;2024-03-23T03:13:59;100185.22;;;6.10;100.00
29433;BME280;16405;53.964;13.448;2024-03-23T03:16:26;100182.63;;;6.10;100.00
29433;BME280;16405;53.964;13.448;2024-03-23T03:18:52;100187.72;;;6.13;100.00
29433;BME280;16405;53.964;13.448;2024-03-23T03:21:18;100180.00;;;6.10;100.00
29433;BME280;16405;53.964;13.448;2024-03-23T03:23:52;100173.31;;;6.03;100.00
29433;BME280;16405;53.964;13.448;2024-03-23T03:26:18;100165.69;;;5.97;100.00
29433;BME280;16405;53.964;13.448;2024-03-23T03:28:43;100175.41;;;5.91;100.00
29433;BME280;16405;53.964;13.448;2024-03-23T03:31:18;100161.72;;;5.85;100.00
29433;BME280;16405;53.964;13.448;2024-03-23T03:33:44;100161.88;;;5.80;100.00
29433;BME280;16405;53.964;13.448;2024-03-23T03:36:10;100159.25;;;5.80;100.00
29433;BME280;16405;53.964;13.448;2024-03-23T03:38:36;100166.25;;;5.80;100.00
29433;BME280;16405;53.964;13.448;2024-03-23T03:41:10;100160.22;;;5.78;100.00
29433;BME280;16405;53.964;13.448;2024-03-23T03:43:36;100149.03;;;5.74;100.00
29433;BME280;16405;53.964;13.448;2024-03-23T03:46:02;100143.00;;;5.72;100.00
29433;BME280;16405;53.964;13.448;2024-03-23T03:48:29;100149.09;;;5.72;100.00
29433;BME280;16405;53.964;13.448;2024-03-23T03:50:55;100147.44;;;5.70;100.00
29433;BME280;16405;53.964;13.448;2024-03-23T03:53:26;100143.13;;;5.69;100.00
29433;BME280;16405;53.964;13.448;2024-03-23T03:55:52;100136.13;;;5.69;100.00
29433;BME280;16405;53.964;13.448;2024-03-23T03:58:18;100140.56;;;5.67;100.00
29433;BME280;16405;53.964;13.448;2024-03-23T04:00:43;100137.16;;;5.65;100.00
29433;BME280;16405;53.964;13.448;2024-03-23T04:03:09;100143.22;;;5.66;100.00
29433;BME280;16405;53.964;13.448;2024-03-23T04:05:35;100143.34;;;5.63;100.00
29433;BME280;16405;53.964;13.448;2024-03-23T04:08:10;100138.13;;;5.63;100.00
29433;BME280;16405;53.964;13.448;2024-03-23T04:10:35;100133.06;;;5.58;100.00
29433;BME280;16405;53.964;13.448;2024-03-23T04:13:01;100136.00;;;5.49;100.00
29433;BME280;16405;53.964;13.448;2024-03-23T04:15:32;100136.41;;;5.37;100.00
29433;BME280;16405;53.964;13.448;2024-03-23T04:18:01;100133.97;;;5.32;99.76
29433;BME280;16405;53.964;13.448;2024-03-23T04:20:26;100134.06;;;5.29;100.00
29433;BME280;16405;53.964;13.448;2024-03-23T04:22:52;100134.06;;;5.29;100.00
29433;BME280;16405;53.964;13.448;2024-03-23T04:25:19;100125.34;;;5.30;100.00
29433;BME280;16405;53.964;13.448;2024-03-23T04:27:54;100124.50;;;5.29;100.00
29433;BME280;16405;53.964;13.448;2024-03-23T04:30:22;100125.31;;;5.31;100.00
29433;BME280;16405;53.964;13.448;2024-03-23T04:32:58;100128.75;;;5.32;100.00
29433;BME280;16405;53.964;13.448;2024-03-23T04:35:26;100118.41;;;5.29;100.00
29433;BME280;16405;53.964;13.448;2024-03-23T04:38:01;100110.53;;;5.30;100.00
29433;BME280;16405;53.964;13.448;2024-03-23T04:40:27;100108.03;;;5.27;100.00
29433;BME280;16405;53.964;13.448;2024-03-23T04:43:02;100106.28;;;5.28;100.00
29433;BME280;16405;53.964;13.448;2024-03-23T04:45:32;100102.91;;;5.24;100.00
29433;BME280;16405;53.964;13.448;2024-03-23T04:47:58;100100.25;;;5.26;100.00
29433;BME280;16405;53.964;13.448;2024-03-23T04:50:31;100095.16;;;5.23;100.00
29433;BME280;16405;53.964;13.448;2024-03-23T04:52:57;100101.25;;;5.22;100.00
29433;BME280;16405;53.964;13.448;2024-03-23T04:55:25;100101.31;;;5.20;100.00
29433;BME280;16405;53.964;13.448;2024-03-23T04:57:51;100096.25;;;5.16;100.00
29433;BME280;16405;53.964;13.448;2024-03-23T05:00:23;100098.06;;;5.13;100.00
29433;BME280;16405;53.964;13.448;2024-03-23T05:02:49;100097.25;;;5.11;100.00
29433;BME280;16405;53.964;13.448;2024-03-23T05:05:15;100101.66;;;5.09;100.00
29433;BME280;16405;53.964;13.448;2024-03-23T05:07:40;100101.78;;;5.06;100.00
29433;BME280;16405;53.964;13.448;2024-03-23T05:10:16;100094.00;;;5.05;100.00
29433;BME280;16405;53.964;13.448;2024-03-23T05:12:42;100076.69;;;5.02;100.00
29433;BME280;16405;53.964;13.448;2024-03-23T05:15:08;100085.44;;;5.01;100.00
29433;BME280;16405;53.964;13.448;2024-03-23T05:17:34;100078.53;;;4.99;100.00
29433;BME280;16405;53.964;13.448;2024-03-23T05:20:06;100068.19;;;4.97;100.00
29433;BME280;16405;53.964;13.448;2024-03-23T05:22:36;100073.56;;;4.92;100.00
29433;BME280;16405;53.964;13.448;2024-03-23T05:25:02;100056.31;;;4.88;100.00
29433;BME280;16405;53.964;13.448;2024-03-23T05:27:33;100051.09;;;4.88;100.00
29433;BME280;16405;53.964;13.448;2024-03-23T05:29:59;100053.72;;;4.87;100.00
29433;BME280;16405;53.964;13.448;2024-03-23T05:32:25;100065.97;;;4.85;100.00
29433;BME280;16405;53.964;13.448;2024-03-23T05:34:51;100055.66;;;4.82;100.00
29433;BME280;16405;53.964;13.448;2024-03-23T05:37:28;100060.97;;;4.79;100.00
29433;BME280;16405;53.964;13.448;2024-03-23T05:39:56;100067.94;;;4.78;100.00
29433;BME280;16405;53.964;13.448;2024-03-23T05:42:22;100070.53;;;4.78;100.00
29433;BME280;16405;53.964;13.448;2024-03-23T05:44:56;100076.53;;;4.82;100.00
29433;BME280;16405;53.964;13.448;2024-03-23T05:47:22;100076.53;;;4.82;100.00
29433;BME280;16405;53.964;13.448;2024-03-23T05:49:48;100081.63;;;4.85;100.00
29433;BME280;16405;53.964;13.448;2024-03-23T05:52:14;100076.28;;;4.88;100.00
29433;BME280;16405;53.964;13.448;2024-03-23T05:54:42;100072.69;;;4.92;100.00
29433;BME280;16405;53.964;13.448;2024-03-23T05:57:10;100075.94;;;4.99;100.00
29433;BME280;16405;53.964;13.448;2024-03-23T05:59:37;100080.44;;;4.95;100.00
29433;BME280;16405;53.964;13.448;2024-03-23T06:02:03;100077.00;;;4.93;100.00
29433;BME280;16405;53.964;13.448;2024-03-23T06:04:29;100077.00;;;4.93;100.00
29433;BME280;16405;53.964;13.448;2024-03-23T06:06:55;100072.47;;;4.98;100.00
29433;BME280;16405;53.964;13.448;2024-03-23T06:09:26;100069.66;;;5.04;100.00
29433;BME280;16405;53.964;13.448;2024-03-23T06:11:52;100073.84;;;5.10;100.00
29433;BME280;16405;53.964;13.448;2024-03-23T06:14:17;100077.09;;;5.17;100.00
29433;BME280;16405;53.964;13.448;2024-03-23T06:16:43;100065.63;;;5.21;100.00
29433;BME280;16405;53.964;13.448;2024-03-23T06:19:09;100068.09;;;5.25;100.00
29433;BME280;16405;53.964;13.448;2024-03-23T06:21:35;100073.09;;;5.31;100.00
29433;BME280;16405;53.964;13.448;2024-03-23T06:24:08;100071.16;;;5.37;100.00
29433;BME280;16405;53.964;13.448;2024-03-23T06:26:34;100067.53;;;5.41;100.00
29433;BME280;16405;53.964;13.448;2024-03-23T06:29:00;100060.44;;;5.44;100.00
29433;BME280;16405;53.964;13.448;2024-03-23T06:31:26;100054.97;;;5.50;100.00
29433;BME280;16405;53.964;13.448;2024-03-23T06:34:02;100055.72;;;5.54;100.00
29433;BME280;16405;53.964;13.448;2024-03-23T06:36:27;100062.50;;;5.60;100.00
29433;BME280;16405;53.964;13.448;2024-03-23T06:39:01;100062.19;;;5.67;100.00
29433;BME280;16405;53.964;13.448;2024-03-23T06:41:27;100053.25;;;5.74;100.00
29433;BME280;16405;53.964;13.448;2024-03-23T06:43:53;100058.13;;;5.84;100.00
29433;BME280;16405;53.964;13.448;2024-03-23T06:46:19;100059.72;;;5.88;100.00
29433;BME280;16405;53.964;13.448;2024-03-23T06:48:50;100063.84;;;5.93;100.00
29433;BME280;16405;53.964;13.448;2024-03-23T06:51:19;100056.72;;;5.99;100.00
29433;BME280;16405;53.964;13.448;2024-03-23T06:53:45;100058.97;;;6.08;100.00
29433;BME280;16405;53.964;13.448;2024-03-23T06:56:10;100053.31;;;6.19;100.00
29433;BME280;16405;53.964;13.448;2024-03-23T06:58:36;100048.47;;;6.31;100.00
29433;BME280;16405;53.964;13.448;2024-03-23T07:01:02;100056.72;;;6.43;100.00
29433;BME280;16405;53.964;13.448;2024-03-23T07:03:31;100051.00;;;6.55;100.00
29433;BME280;16405;53.964;13.448;2024-03-23T07:06:03;100041.75;;;6.68;100.00
29433;BME280;16405;53.964;13.448;2024-03-23T07:08:29;100039.66;;;6.76;100.00
29433;BME280;16405;53.964;13.448;2024-03-23T07:10:55;100035.28;;;6.77;100.00
29433;BME280;16405;53.964;13.448;2024-03-23T07:13:20;100035.03;;;6.83;100.00
29433;BME280;16405;53.964;13.448;2024-03-23T07:15:55;100025.53;;;6.81;100.00
29433;BME280;16405;53.964;13.448;2024-03-23T07:18:21;100027.81;;;6.88;100.00
29433;BME280;16405;53.964;13.448;2024-03-23T07:21:02;100021.06;;;6.62;100.00
29433;BME280;16405;53.964;13.448;2024-03-23T07:23:29;100020.22;;;6.62;100.00
29433;BME280;16405;53.964;13.448;2024-03-23T07:26:04;100033.91;;;6.68;100.00
29433;BME280;16405;53.964;13.448;2024-03-23T07:28:31;100027.44;;;6.77;100.00
29433;BME280;16405;53.964;13.448;2024-03-23T07:31:12;100033.25;;;6.63;100.00
29433;BME280;16405;53.964;13.448;2024-03-23T07:33:48;100032.00;;;6.72;100.00
29433;BME280;16405;53.964;13.448;2024-03-23T07:36:14;100027.97;;;6.85;99.98
29433;BME280;16405;53.964;13.448;2024-03-23T07:38:44;100031.38;;;6.87;99.65
29433;BME280;16405;53.964;13.448;2024-03-23T07:41:32;100028.53;;;6.92;98.76
29433;BME280;16405;53.964;13.448;2024-03-23T07:43:58;100016.91;;;6.78;97.23
29433;BME280;16405;53.964;13.448;2024-03-23T07:46:24;100014.03;;;6.85;97.00
29433;BME280;16405;53.964;13.448;2024-03-23T07:48:51;100002.25;;;6.74;97.15
29433;BME280;16405;53.964;13.448;2024-03-23T07:51:23;99992.09;;;6.46;96.07
29433;BME280;16405;53.964;13.448;2024-03-23T07:53:49;99996.28;;;6.28;96.56
29433;BME280;16405;53.964;13.448;2024-03-23T07:56:18;100002.44;;;6.27;97.17
29433;BME280;16405;53.964;13.448;2024-03-23T07:58:53;99996.78;;;6.16;97.29
29433;BME280;16405;53.964;13.448;2024-03-23T08:01:20;99992.22;;;6.21;97.94
29433;BME280;16405;53.964;13.448;2024-03-23T08:03:46;99986.22;;;6.19;98.43
29433;BME280;16405;53.964;13.448;2024-03-23T08:06:19;99986.94;;;6.23;98.52
29433;BME280;16405;53.964;13.448;2024-03-23T08:08:48;99987.41;;;6.32;99.30
29433;BME280;16405;53.964;13.448;2024-03-23T08:11:15;99991.41;;;6.41;99.22
29433;BME280;16405;53.964;13.448;2024-03-23T08:13:44;99981.69;;;6.45;98.90
29433;BME280;16405;53.964;13.448;2024-03-23T08:16:13;99985.81;;;6.28;98.59
29433;BME280;16405;53.964;13.448;2024-03-23T08:18:41;99982.19;;;6.32;98.81
29433;BME280;16405;53.964;13.448;2024-03-23T08:21:07;99979.34;;;6.59;98.05
29433;BME280;16405;53.964;13.448;2024-03-23T08:23:42;99982.81;;;6.80;98.03
29433;BME280;16405;53.964;13.448;2024-03-23T08:26:21;99982.88;;;6.99;96.97
29433;BME280;16405;53.964;13.448;2024-03-23T08:28:47;99982.06;;;6.97;95.64
29433;BME280;16405;53.964;13.448;2024-03-23T08:31:15;99981.56;;;6.89;93.66
29433;BME280;16405;53.964;13.448;2024-03-23T08:33:52;99972.88;;;6.68;93.24
29433;BME280;16405;53.964;13.448;2024-03-23T08:36:18;99961.44;;;6.70;92.95
29433;BME280;16405;53.964;13.448;2024-03-23T08:39:23;99965.72;;;6.92;93.59
29433;BME280;16405;53.964;13.448;2024-03-23T08:41:50;99974.75;;;7.05;93.34
29433;BME280;16405;53.964;13.448;2024-03-23T08:44:18;99963.53;;;6.83;93.15
29433;BME280;16405;53.964;13.448;2024-03-23T08:47:01;99962.22;;;6.72;93.31
29433;BME280;16405;53.964;13.448;2024-03-23T08:49:47;99965.38;;;6.99;92.91
29433;BME280;16405;53.964;13.448;2024-03-23T08:52:28;99962.28;;;6.91;91.77
29433;BME280;16405;53.964;13.448;2024-03-23T08:54:56;99971.50;;;6.80;91.55
29433;BME280;16405;53.964;13.448;2024-03-23T08:57:23;99964.47;;;7.01;92.88
29433;BME280;16405;53.964;13.448;2024-03-23T09:00:01;99969.50;;;7.26;91.98
29433;BME280;16405;53.964;13.448;2024-03-23T09:02:27;99973.88;;;7.44;91.41
29433;BME280;16405;53.964;13.448;2024-03-23T09:05:18;99979.84;;;7.48;88.95
29433;BME280;16405;53.964;13.448;2024-03-23T09:07:54;99979.19;;;7.43;87.78
29433;BME280;16405;53.964;13.448;2024-03-23T09:10:23;99976.16;;;7.52;87.11
29433;BME280;16405;53.964;13.448;2024-03-23T09:12:49;99971.31;;;7.43;86.92
29433;BME280;16405;53.964;13.448;2024-03-23T09:15:15;99980.03;;;7.24;87.25
29433;BME280;16405;53.964;13.448;2024-03-23T09:17:51;99971.72;;;7.14;88.04
29433;BME280;16405;53.964;13.448;2024-03-23T09:20:19;99965.47;;;6.98;88.26
29433;BME280;16405;53.964;13.448;2024-03-23T09:23:10;99966.84;;;7.07;88.01
29433;BME280;16405;53.964;13.448;2024-03-23T09:25:51;99964.59;;;6.97;87.87
29433;BME280;16405;53.964;13.448;2024-03-23T09:28:19;99968.66;;;7.05;88.42
29433;BME280;16405;53.964;13.448;2024-03-23T09:34:04;99961.41;;;7.49;87.89
29433;BME280;16405;53.964;13.448;2024-03-23T09:36:30;99960.00;;;7.61;86.72
29433;BME280;16405;53.964;13.448;2024-03-23T09:39:07;99955.47;;;7.65;86.54
29433;BME280;16405;53.964;13.448;2024-03-23T09:41:36;99953.97;;;7.78;86.87
29433;BME280;16405;53.964;13.448;2024-03-23T09:44:02;99947.69;;;7.63;85.45
29433;BME280;16405;53.964;13.448;2024-03-23T09:46:36;99955.97;;;7.54;85.71
29433;BME280;16405;53.964;13.448;2024-03-23T09:49:15;99957.00;;;7.88;86.19
29433;BME280;16405;53.964;13.448;2024-03-23T09:51:42;99960.66;;;8.02;85.20
29433;BME280;16405;53.964;13.448;2024-03-23T09:54:11;99963.97;;;7.89;82.23
29433;BME280;16405;53.964;13.448;2024-03-23T09:57:00;99962.75;;;7.77;81.08
29433;BME280;16405;53.964;13.448;2024-03-23T09:59:29;99961.88;;;7.95;81.24
29433;BME280;16405;53.964;13.448;2024-03-23T10:02:06;99965.31;;;8.15;82.33
29433;BME280;16405;53.964;13.448;2024-03-23T10:04:44;99959.03;;;8.36;81.91
29433;BME280;16405;53.964;13.448;2024-03-23T10:07:39;99953.38;;;8.27;81.49
29433;BME280;16405;53.964;13.448;2024-03-23T10:10:37;99951.13;;;8.19;81.63
29433;BME280;16405;53.964;13.448;2024-03-23T10:13:06;99953.47;;;8.25;81.29
29433;BME280;16405;53.964;13.448;2024-03-23T10:15:38;99956.75;;;8.48;80.34
29433;BME280;16405;53.964;13.448;2024-03-23T10:18:25;99960.72;;;8.72;80.26
29433;BME280;16405;53.964;13.448;2024-03-23T10:21:18;99961.25;;;8.79;78.63
29433;BME280;16405;53.964;13.448;2024-03-23T10:23:44;99968.69;;;8.88;77.30
29433;BME280;16405;53.964;13.448;2024-03-23T10:26:22;99960.16;;;9.00;76.96
29433;BME280;16405;53.964;13.448;2024-03-23T10:29:14;99973.53;;;8.96;76.17
29433;BME280;16405;53.964;13.448;2024-03-23T10:31:43;99966.16;;;8.69;75.93
29433;BME280;16405;53.964;13.448;2024-03-23T10:34:36;99971.41;;;8.69;76.29
29433;BME280;16405;53.964;13.448;2024-03-23T10:37:07;99972.94;;;8.73;75.84
29433;BME280;16405;53.964;13.448;2024-03-23T10:39:40;99982.66;;;8.89;75.50
29433;BME280;16405;53.964;13.448;2024-03-23T10:42:09;99964.94;;;8.40;75.13
29433;BME280;16405;53.964;13.448;2024-03-23T10:44:48;99959.59;;;8.07;75.15
29433;BME280;16405;53.964;13.448;2024-03-23T10:47:25;99951.56;;;8.10;76.81
29433;BME280;16405;53.964;13.448;2024-03-23T10:49:52;99946.66;;;8.04;76.96
29433;BME280;16405;53.964;13.448;2024-03-23T10:55:14;99946.97;;;7.78;76.67
29433;BME280;16405;53.964;13.448;2024-03-23T10:58:07;99944.84;;;7.87;76.83
29433;BME280;16405;53.964;13.448;2024-03-23T11:00:44;99947.34;;;7.88;76.39
29433;BME280;16405;53.964;13.448;2024-03-23T11:03:38;99941.66;;;7.80;76.86
29433;BME280;16405;53.964;13.448;2024-03-23T11:12:52;99956.91;;;8.45;75.28
29433;BME280;16405;53.964;13.448;2024-03-23T11:15:47;99948.22;;;8.25;74.57
29433;BME280;16405;53.964;13.448;2024-03-23T11:18:37;99952.81;;;8.20;72.96
29433;BME280;16405;53.964;13.448;2024-03-23T11:21:54;99955.22;;;8.25;73.47
29433;BME280;16405;53.964;13.448;2024-03-23T11:24:32;99961.16;;;8.47;72.78
29433;BME280;16405;53.964;13.448;2024-03-23T11:27:06;99963.84;;;8.63;72.35
29433;BME280;16405;53.964;13.448;2024-03-23T11:29:47;99949.44;;;8.35;72.17
29433;BME280;16405;53.964;13.448;2024-03-23T11:32:15;99942.63;;;8.14;72.61
29433;BME280;16405;53.964;13.448;2024-03-23T11:34:41;99949.09;;;8.07;72.89
29433;BME280;16405;53.964;13.448;2024-03-23T11:37:16;99946.41;;;8.08;72.48
29433;BME280;16405;53.964;13.448;2024-03-23T11:39:45;99946.81;;;8.18;72.28
29433;BME280;16405;53.964;13.448;2024-03-23T11:42:22;99959.69;;;8.40;70.88
29433;BME280;16405;53.964;13.448;2024-03-23T11:44:50;99953.59;;;8.22;70.03
29433;BME280;16405;53.964;13.448;2024-03-23T11:47:32;99949.47;;;8.53;71.21
29433;BME280;16405;53.964;13.448;2024-03-23T11:50:04;99956.66;;;8.84;71.19
29433;BME280;16405;53.964;13.448;2024-03-23T11:52:30;99961.88;;;9.01;70.70
29433;BME280;16405;53.964;13.448;2024-03-23T11:55:13;99956.19;;;9.27;69.15
29433;BME280;16405;53.964;13.448;2024-03-23T11:57:53;99964.28;;;9.22;68.52
29433;BME280;16405;53.964;13.448;2024-03-23T12:00:28;99960.03;;;9.19;69.41
29433;BME280;16405;53.964;13.448;2024-03-23T12:03:13;99958.81;;;9.42;68.80
29433;BME280;16405;53.964;13.448;2024-03-23T12:05:54;99969.88;;;9.16;67.83
29433;BME280;16405;53.964;13.448;2024-03-23T12:08:33;99945.59;;;8.95;68.03
29433;BME280;16405;53.964;13.448;2024-03-23T12:11:13;99947.75;;;8.87;68.36
29433;BME280;16405;53.964;13.448;2024-03-23T12:13:49;99967.31;;;9.14;66.72
29433;BME280;16405;53.964;13.448;2024-03-23T12:16:41;99961.84;;;9.35;65.09
29433;BME280;16405;53.964;13.448;2024-03-23T12:19:12;99967.41;;;9.46;64.45
29433;BME280;16405;53.964;13.448;2024-03-23T12:22:04;99963.56;;;9.36;64.88
29433;BME280;16405;53.964;13.448;2024-03-23T12:24:31;99966.56;;;9.61;65.05
29433;BME280;16405;53.964;13.448;2024-03-23T12:27:23;99961.03;;;9.98;64.86
29433;BME280;16405;53.964;13.448;2024-03-23T12:29:55;99966.34;;;10.28;64.85
29433;BME280;16405;53.964;13.448;2024-03-23T12:32:27;99961.53;;;10.04;62.85
29433;BME280;16405;53.964;13.448;2024-03-23T12:35:06;99973.13;;;10.32;63.68
29433;BME280;16405;53.964;13.448;2024-03-23T12:37:35;99966.09;;;10.63;63.39
29433;BME280;16405;53.964;13.448;2024-03-23T12:40:14;99981.31;;;11.02;63.36
29433;BME280;16405;53.964;13.448;2024-03-23T12:42:48;99973.59;;;11.28;63.54
29433;BME280;16405;53.964;13.448;2024-03-23T12:45:24;99981.41;;;11.58;62.79
29433;BME280;16405;53.964;13.448;2024-03-23T12:51:10;100005.00;;;11.74;57.31
29433;BME280;16405;53.964;13.448;2024-03-23T12:54:05;99992.19;;;11.82;60.25
29433;BME280;16405;53.964;13.448;2024-03-23T12:56:33;99990.56;;;11.38;58.56
29433;BME280;16405;53.964;13.448;2024-03-23T12:59:07;100004.09;;;11.61;58.95
29433;BME280;16405;53.964;13.448;2024-03-23T13:01:32;99993.69;;;11.86;60.30
29433;BME280;16405;53.964;13.448;2024-03-23T13:06:53;100010.78;;;11.52;58.30
29433;BME280;16405;53.964;13.448;2024-03-23T13:09:19;100010.31;;;11.31;59.13
29433;BME280;16405;53.964;13.448;2024-03-23T13:11:55;100002.88;;;11.23;60.24
29433;BME280;16405;53.964;13.448;2024-03-23T13:14:24;100005.69;;;11.06;60.42
29433;BME280;16405;53.964;13.448;2024-03-23T13:16:52;99997.91;;;10.74;61.19
29433;BME280;16405;53.964;13.448;2024-03-23T13:19:28;99995.19;;;10.45;61.45
29433;BME280;16405;53.964;13.448;2024-03-23T13:22:06;99976.53;;;10.34;63.01
29433;BME280;16405;53.964;13.448;2024-03-23T13:24:32;99974.91;;;10.62;64.72
29433;BME280;16405;53.964;13.448;2024-03-23T13:26:58;99985.50;;;10.76;62.23
29433;BME280;16405;53.964;13.448;2024-03-23T13:29:32;99991.25;;;10.83;61.13
29433;BME280;16405;53.964;13.448;2024-03-23T13:32:00;100003.56;;;10.82;59.61
29433;BME280;16405;53.964;13.448;2024-03-23T13:34:37;100020.63;;;10.61;58.63
29433;BME280;16405;53.964;13.448;2024-03-23T13:37:03;100019.09;;;10.57;58.46
29433;BME280;16405;53.964;13.448;2024-03-23T13:39:29;100016.22;;;10.61;58.59
29433;BME280;16405;53.964;13.448;2024-03-23T13:41:56;100012.75;;;10.75;59.20
29433;BME280;16405;53.964;13.448;2024-03-23T13:44:42;100006.06;;;11.00;60.24
29433;BME280;16405;53.964;13.448;2024-03-23T13:47:10;100029.97;;;11.11;56.28
29433;BME280;16405;53.964;13.448;2024-03-23T13:49:38;100032.22;;;11.17;56.26
29433;BME280;16405;53.964;13.448;2024-03-23T13:52:12;100039.28;;;11.31;56.68
29433;BME280;16405;53.964;13.448;2024-03-23T13:54:37;100031.31;;;11.47;57.82
29433;BME280;16405;53.964;13.448;2024-03-23T13:57:03;100043.72;;;11.59;57.17
29433;BME280;16405;53.964;13.448;2024-03-23T13:59:32;100056.72;;;11.77;54.66
29433;BME280;16405;53.964;13.448;2024-03-23T14:02:03;100070.94;;;11.74;54.62
29433;BME280;16405;53.964;13.448;2024-03-23T14:04:29;100061.31;;;11.44;55.48
29433;BME280;16405;53.964;13.448;2024-03-23T14:07:00;100060.47;;;11.15;55.37
29433;BME280;16405;53.964;13.448;2024-03-23T14:09:36;100059.03;;;10.79;57.26
29433;BME280;16405;53.964;13.448;2024-03-23T14:12:04;100037.72;;;9.08;60.20
29433;BME280;16405;53.964;13.448;2024-03-23T14:14:34;99998.31;;;7.83;64.41
29433;BME280;16405;53.964;13.448;2024-03-23T14:17:03;99975.88;;;6.79;68.30
29433;BME280;16405;53.964;13.448;2024-03-23T14:22:08;100001.41;;;6.09;75.21
29433;BME280;16405;53.964;13.448;2024-03-23T14:24:45;100015.97;;;5.93;77.06
29433;BME280;16405;53.964;13.448;2024-03-23T14:27:10;100020.75;;;6.27;77.71